UAL3759 KCLT-KIAD
Flight info
| Callsign | UAL3759 |
|---|---|
| Flight time | N/A |
| Altitude | 37000 |
| Route | KILNS5 AUDII DORRN CAVLR6 |
| Aircraft | A320/M-SDE3FGHIRWY/LB1 |
Departure
| Time | 2026-05-06 00:39 |
|---|---|
| Airport | Charlotte Douglas International Airport (KCLT) |
Arrival
| Time | N/A |
|---|---|
| Airport | Washington Dulles International Airport (KIAD) |
| Time | Latitude | Longitude | Altitude | Speed | Heading |
|---|---|---|---|---|---|
| 2026-05-05 23:20 | 35.21795 | -80.94281 | 722 ft | 0 kts | 65° |
| 2026-05-06 00:19 | 35.21787 | -80.94305 | 723 ft | 4 kts | 79° |
| 2026-05-06 00:19 | 35.21787 | -80.94336 | 722 ft | 4 kts | 120° |
| 2026-05-06 00:19 | 35.21800 | -80.94350 | 723 ft | 0 kts | 174° |
| 2026-05-06 00:33 | 35.21769 | -80.94346 | 723 ft | 11 kts | 174° |
| 2026-05-06 00:34 | 35.21677 | -80.94339 | 723 ft | 14 kts | 176° |
| 2026-05-06 00:34 | 35.21633 | -80.94234 | 722 ft | 17 kts | 97° |
| 2026-05-06 00:34 | 35.21685 | -80.94112 | 724 ft | 16 kts | 50° |
| 2026-05-06 00:34 | 35.21693 | -80.94100 | 724 ft | 0 kts | 50° |
| 2026-05-06 00:35 | 35.21700 | -80.94090 | 724 ft | 4 kts | 49° |
| 2026-05-06 00:35 | 35.21750 | -80.94020 | 724 ft | 18 kts | 47° |
| 2026-05-06 00:35 | 35.21842 | -80.93897 | 727 ft | 21 kts | 49° |
| 2026-05-06 00:35 | 35.21950 | -80.93746 | 726 ft | 24 kts | 49° |
| 2026-05-06 00:36 | 35.22035 | -80.93717 | 727 ft | 11 kts | 358° |
| 2026-05-06 00:36 | 35.22126 | -80.93721 | 728 ft | 15 kts | 2° |
| 2026-05-06 00:36 | 35.22238 | -80.93731 | 730 ft | 18 kts | 356° |
| 2026-05-06 00:36 | 35.22380 | -80.93741 | 730 ft | 21 kts | 357° |
| 2026-05-06 00:37 | 35.22452 | -80.93750 | 731 ft | 0 kts | 354° |
| 2026-05-06 00:37 | 35.22457 | -80.93750 | 731 ft | 2 kts | 356° |
| 2026-05-06 00:37 | 35.22488 | -80.93743 | 732 ft | 7 kts | 27° |
| 2026-05-06 00:37 | 35.22507 | -80.93683 | 732 ft | 10 kts | 85° |
| 2026-05-06 00:38 | 35.22464 | -80.93616 | 731 ft | 14 kts | 172° |
| 2026-05-06 00:38 | 35.22344 | -80.93600 | 730 ft | 22 kts | 175° |
| 2026-05-06 00:38 | 35.22033 | -80.93575 | 729 ft | 85 kts | 175° |
| 2026-05-06 00:38 | 35.21199 | -80.93505 | 723 ft | 153 kts | 176° |
| 2026-05-06 00:39 | 35.20077 | -80.93404 | 1449 ft | 159 kts | 172° |
| 2026-05-06 00:39 | 35.18983 | -80.93286 | 2491 ft | 161 kts | 171° |
| 2026-05-06 00:39 | 35.17801 | -80.93192 | 3100 ft | 185 kts | 181° |
| 2026-05-06 00:39 | 35.16485 | -80.93109 | 3956 ft | 192 kts | 178° |
| 2026-05-06 00:40 | 35.15111 | -80.92943 | 4904 ft | 205 kts | 176° |
| 2026-05-06 00:40 | 35.13633 | -80.92755 | 5852 ft | 222 kts | 178° |
| 2026-05-06 00:40 | 35.12045 | -80.92555 | 6776 ft | 241 kts | 176° |
| 2026-05-06 00:40 | 35.10390 | -80.91812 | 7597 ft | 272 kts | 151° |
| 2026-05-06 00:41 | 35.09024 | -80.90108 | 8259 ft | 292 kts | 124° |
| 2026-05-06 00:41 | 35.08389 | -80.87707 | 8975 ft | 307 kts | 95° |
| 2026-05-06 00:41 | 35.08746 | -80.85119 | 9581 ft | 313 kts | 64° |
| 2026-05-06 00:41 | 35.09825 | -80.82831 | 10079 ft | 314 kts | 55° |
| 2026-05-06 00:42 | 35.10985 | -80.80549 | 10555 ft | 317 kts | 55° |
| 2026-05-06 00:42 | 35.12157 | -80.78248 | 11039 ft | 320 kts | 55° |
| 2026-05-06 00:42 | 35.13330 | -80.75928 | 11519 ft | 322 kts | 55° |
| 2026-05-06 00:42 | 35.14493 | -80.73608 | 12019 ft | 324 kts | 56° |
| 2026-05-06 00:43 | 35.15678 | -80.71228 | 12505 ft | 328 kts | 56° |
| 2026-05-06 00:43 | 35.16872 | -80.68819 | 13023 ft | 332 kts | 56° |
| 2026-05-06 00:43 | 35.18075 | -80.66393 | 13556 ft | 335 kts | 56° |
| 2026-05-06 00:43 | 35.19270 | -80.63972 | 14045 ft | 338 kts | 56° |
| 2026-05-06 00:44 | 35.20492 | -80.61503 | 14509 ft | 340 kts | 56° |
| 2026-05-06 00:44 | 35.21725 | -80.59021 | 14974 ft | 341 kts | 55° |
| 2026-05-06 00:44 | 35.22964 | -80.56529 | 15467 ft | 343 kts | 55° |
| 2026-05-06 00:44 | 35.24191 | -80.54050 | 15938 ft | 345 kts | 55° |
| 2026-05-06 00:45 | 35.25437 | -80.51536 | 16441 ft | 345 kts | 55° |
| 2026-05-06 00:45 | 35.26686 | -80.49013 | 16948 ft | 347 kts | 55° |
| 2026-05-06 00:45 | 35.27934 | -80.46478 | 17467 ft | 349 kts | 55° |
| 2026-05-06 00:45 | 35.29186 | -80.43921 | 17994 ft | 351 kts | 55° |
| 2026-05-06 00:46 | 35.30449 | -80.41354 | 18491 ft | 353 kts | 54° |
| 2026-05-06 00:46 | 35.31727 | -80.38771 | 18962 ft | 355 kts | 54° |
| 2026-05-06 00:46 | 35.32999 | -80.36201 | 19423 ft | 359 kts | 54° |
| 2026-05-06 00:46 | 35.34300 | -80.33554 | 19902 ft | 362 kts | 54° |
| 2026-05-06 00:47 | 35.35586 | -80.30921 | 20380 ft | 365 kts | 54° |
| 2026-05-06 00:47 | 35.36902 | -80.28224 | 20898 ft | 369 kts | 54° |
| 2026-05-06 00:47 | 35.38233 | -80.25504 | 21408 ft | 374 kts | 54° |
| 2026-05-06 00:47 | 35.39585 | -80.22752 | 21897 ft | 377 kts | 54° |
| 2026-05-06 00:48 | 35.40929 | -80.20012 | 22421 ft | 381 kts | 54° |
| 2026-05-06 00:48 | 35.42304 | -80.17203 | 22945 ft | 384 kts | 54° |
| 2026-05-06 00:48 | 35.43553 | -80.14265 | 23476 ft | 390 kts | 60° |
| 2026-05-06 00:48 | 35.44615 | -80.11229 | 23941 ft | 394 kts | 64° |
| 2026-05-06 00:49 | 35.45580 | -80.08064 | 24397 ft | 398 kts | 66° |
| 2026-05-06 00:49 | 35.46508 | -80.04815 | 24861 ft | 409 kts | 66° |
| 2026-05-06 00:49 | 35.47554 | -80.01523 | 25324 ft | 414 kts | 57° |
| 2026-05-06 00:49 | 35.49197 | -79.98677 | 25792 ft | 413 kts | 40° |
| 2026-05-06 00:50 | 35.51379 | -79.96326 | 26078 ft | 422 kts | 33° |
| 2026-05-06 00:50 | 35.53663 | -79.94052 | 26584 ft | 428 kts | 32° |
| 2026-05-06 00:50 | 35.55999 | -79.91747 | 27187 ft | 433 kts | 32° |
| 2026-05-06 00:50 | 35.58369 | -79.89414 | 27781 ft | 437 kts | 32° |
| 2026-05-06 00:51 | 35.60753 | -79.87061 | 28376 ft | 440 kts | 32° |
| 2026-05-06 00:51 | 35.63152 | -79.84685 | 28965 ft | 444 kts | 32° |
| 2026-05-06 00:51 | 35.65539 | -79.82314 | 29543 ft | 447 kts | 32° |
| 2026-05-06 00:51 | 35.67972 | -79.79894 | 30049 ft | 451 kts | 32° |
| 2026-05-06 00:52 | 35.70419 | -79.77455 | 30535 ft | 454 kts | 31° |
| 2026-05-06 00:52 | 35.72887 | -79.74987 | 31011 ft | 456 kts | 31° |
| 2026-05-06 00:52 | 35.75322 | -79.72553 | 31491 ft | 457 kts | 31° |
| 2026-05-06 00:52 | 35.77799 | -79.70076 | 31982 ft | 459 kts | 30° |
| 2026-05-06 00:53 | 35.80293 | -79.67582 | 32497 ft | 461 kts | 30° |
| 2026-05-06 00:53 | 35.82795 | -79.65085 | 33021 ft | 462 kts | 30° |
| 2026-05-06 00:53 | 35.85273 | -79.62605 | 33541 ft | 462 kts | 30° |
| 2026-05-06 00:53 | 35.87779 | -79.60089 | 34046 ft | 462 kts | 29° |
| 2026-05-06 00:54 | 35.90246 | -79.57607 | 34503 ft | 461 kts | 29° |
| 2026-05-06 00:54 | 35.92741 | -79.55092 | 34975 ft | 461 kts | 29° |
| 2026-05-06 00:54 | 35.95223 | -79.52593 | 35447 ft | 460 kts | 29° |
| 2026-05-06 00:54 | 35.97677 | -79.50130 | 35939 ft | 458 kts | 29° |
| 2026-05-06 00:55 | 36.00145 | -79.47647 | 36437 ft | 457 kts | 28° |
| 2026-05-06 00:55 | 36.02617 | -79.45161 | 36870 ft | 457 kts | 28° |
| 2026-05-06 00:55 | 36.05111 | -79.42656 | 37005 ft | 463 kts | 28° |
| 2026-05-06 00:56 | 36.10101 | -79.37624 | 37007 ft | 467 kts | 29° |
| 2026-05-06 00:56 | 36.15142 | -79.32506 | 37005 ft | 467 kts | 29° |
| 2026-05-06 00:57 | 36.20142 | -79.27437 | 37007 ft | 467 kts | 29° |
| 2026-05-06 00:57 | 36.25191 | -79.22315 | 37076 ft | 467 kts | 29° |
| 2026-05-06 00:57 | 36.27649 | -79.19809 | 36773 ft | 457 kts | 29° |
| 2026-05-06 00:58 | 36.30070 | -79.17325 | 36397 ft | 447 kts | 29° |
| 2026-05-06 00:58 | 36.32454 | -79.14889 | 36023 ft | 439 kts | 28° |
| 2026-05-06 00:58 | 36.34803 | -79.12498 | 35658 ft | 434 kts | 28° |
| 2026-05-06 00:58 | 36.37139 | -79.10131 | 35303 ft | 431 kts | 28° |
| 2026-05-06 00:59 | 36.39455 | -79.07779 | 34933 ft | 429 kts | 28° |
| 2026-05-06 00:59 | 36.41732 | -79.05466 | 34590 ft | 427 kts | 29° |
| 2026-05-06 00:59 | 36.44017 | -79.03138 | 34236 ft | 423 kts | 29° |
| 2026-05-06 00:59 | 36.46294 | -79.00806 | 33863 ft | 421 kts | 29° |
| 2026-05-06 01:00 | 36.48552 | -78.98491 | 33470 ft | 419 kts | 29° |
| 2026-05-06 01:00 | 36.50773 | -78.96217 | 33100 ft | 418 kts | 30° |
| 2026-05-06 01:00 | 36.53024 | -78.93910 | 32984 ft | 417 kts | 30° |
| 2026-05-06 01:01 | 36.57512 | -78.89302 | 32988 ft | 419 kts | 30° |
| 2026-05-06 01:01 | 36.61993 | -78.84700 | 32989 ft | 418 kts | 30° |
| 2026-05-06 01:02 | 36.66492 | -78.80082 | 32993 ft | 419 kts | 30° |
| 2026-05-06 01:02 | 36.70965 | -78.75463 | 33021 ft | 419 kts | 30° |
| 2026-05-06 01:02 | 36.73240 | -78.73119 | 33001 ft | 430 kts | 30° |
| 2026-05-06 01:03 | 36.75574 | -78.70731 | 33009 ft | 447 kts | 30° |
| 2026-05-06 01:03 | 36.78030 | -78.68220 | 32980 ft | 460 kts | 31° |
| 2026-05-06 01:03 | 36.80505 | -78.65665 | 32598 ft | 462 kts | 32° |
| 2026-05-06 01:03 | 36.82971 | -78.63086 | 32218 ft | 462 kts | 32° |
| 2026-05-06 01:04 | 36.85431 | -78.60503 | 31838 ft | 461 kts | 33° |
| 2026-05-06 01:04 | 36.87888 | -78.57927 | 31465 ft | 460 kts | 33° |
| 2026-05-06 01:04 | 36.90341 | -78.55368 | 31096 ft | 458 kts | 33° |
| 2026-05-06 01:04 | 36.92787 | -78.52823 | 30752 ft | 457 kts | 33° |
| 2026-05-06 01:05 | 36.95216 | -78.50302 | 30394 ft | 457 kts | 34° |
| 2026-05-06 01:05 | 36.97662 | -78.47768 | 30034 ft | 456 kts | 34° |
| 2026-05-06 01:05 | 37.00111 | -78.45224 | 29612 ft | 454 kts | 34° |
| 2026-05-06 01:05 | 37.02503 | -78.42733 | 29203 ft | 452 kts | 34° |
| 2026-05-06 01:06 | 37.04920 | -78.40210 | 28793 ft | 449 kts | 34° |
| 2026-05-06 01:06 | 37.07312 | -78.37710 | 28392 ft | 447 kts | 34° |
| 2026-05-06 01:06 | 37.09697 | -78.35221 | 27996 ft | 444 kts | 34° |
| 2026-05-06 01:06 | 37.12068 | -78.32738 | 27602 ft | 442 kts | 34° |
| 2026-05-06 01:07 | 37.14402 | -78.30284 | 27243 ft | 440 kts | 34° |
| 2026-05-06 01:07 | 37.16761 | -78.27800 | 26862 ft | 439 kts | 34° |
| 2026-05-06 01:07 | 37.19098 | -78.25354 | 26490 ft | 437 kts | 34° |
| 2026-05-06 01:07 | 37.21399 | -78.22944 | 26126 ft | 435 kts | 34° |
| 2026-05-06 01:08 | 37.23723 | -78.20508 | 25754 ft | 433 kts | 34° |
| 2026-05-06 01:08 | 37.26025 | -78.18091 | 25401 ft | 431 kts | 34° |
| 2026-05-06 01:08 | 37.28298 | -78.15699 | 25030 ft | 429 kts | 34° |
| 2026-05-06 01:08 | 37.30586 | -78.13284 | 24674 ft | 427 kts | 35° |
| 2026-05-06 01:09 | 37.32855 | -78.10887 | 24326 ft | 425 kts | 35° |
| 2026-05-06 01:09 | 37.35125 | -78.08489 | 24001 ft | 423 kts | 35° |
| 2026-05-06 01:09 | 37.37351 | -78.06139 | 23667 ft | 423 kts | 35° |
| 2026-05-06 01:09 | 37.39605 | -78.03760 | 23279 ft | 422 kts | 35° |
| 2026-05-06 01:10 | 37.41852 | -78.01387 | 22879 ft | 420 kts | 35° |
| 2026-05-06 01:10 | 37.44064 | -77.99045 | 22482 ft | 418 kts | 36° |
| 2026-05-06 01:10 | 37.46292 | -77.96684 | 22092 ft | 417 kts | 36° |
| 2026-05-06 01:10 | 37.48512 | -77.94325 | 21702 ft | 415 kts | 36° |
| 2026-05-06 01:11 | 37.50729 | -77.91969 | 21335 ft | 413 kts | 36° |
| 2026-05-06 01:11 | 37.52947 | -77.89713 | 20946 ft | 409 kts | 30° |
| 2026-05-06 01:11 | 37.55444 | -77.88099 | 20576 ft | 401 kts | 18° |
| 2026-05-06 01:11 | 37.57977 | -77.86713 | 20226 ft | 401 kts | 19° |
| 2026-05-06 01:12 | 37.60530 | -77.85265 | 19854 ft | 401 kts | 20° |
| 2026-05-06 01:12 | 37.63070 | -77.83803 | 19498 ft | 400 kts | 20° |
| 2026-05-06 01:12 | 37.65595 | -77.82345 | 19142 ft | 399 kts | 21° |
| 2026-05-06 01:12 | 37.68121 | -77.80901 | 18803 ft | 398 kts | 20° |
| 2026-05-06 01:13 | 37.70651 | -77.79484 | 18456 ft | 396 kts | 20° |
| 2026-05-06 01:13 | 37.73173 | -77.78091 | 18090 ft | 395 kts | 20° |
| 2026-05-06 01:13 | 37.75655 | -77.76728 | 17692 ft | 393 kts | 20° |
| 2026-05-06 01:13 | 37.78159 | -77.75351 | 17298 ft | 390 kts | 20° |
| 2026-05-06 01:14 | 37.83087 | -77.72621 | 16530 ft | 385 kts | 20° |
| 2026-05-06 01:14 | 37.85534 | -77.71257 | 16149 ft | 382 kts | 20° |
| 2026-05-06 01:14 | 37.87966 | -77.69901 | 15778 ft | 380 kts | 20° |
| 2026-05-06 01:15 | 37.90380 | -77.68558 | 15403 ft | 377 kts | 20° |
| 2026-05-06 01:15 | 37.92754 | -77.67236 | 15041 ft | 375 kts | 20° |
| 2026-05-06 01:15 | 37.95136 | -77.65901 | 14674 ft | 372 kts | 20° |
| 2026-05-06 01:15 | 37.97505 | -77.64570 | 14316 ft | 370 kts | 20° |
| 2026-05-06 01:16 | 37.99826 | -77.63270 | 13973 ft | 367 kts | 20° |
| 2026-05-06 01:16 | 38.02156 | -77.61964 | 13605 ft | 365 kts | 20° |
| 2026-05-06 01:16 | 38.04481 | -77.60659 | 13209 ft | 363 kts | 20° |
| 2026-05-06 01:16 | 38.06794 | -77.59336 | 12819 ft | 362 kts | 21° |
| 2026-05-06 01:17 | 38.09064 | -77.57946 | 12423 ft | 361 kts | 23° |
| 2026-05-06 01:17 | 38.11290 | -77.56521 | 12044 ft | 359 kts | 24° |
| 2026-05-06 01:17 | 38.13510 | -77.55075 | 11675 ft | 358 kts | 24° |
| 2026-05-06 01:17 | 38.15723 | -77.53635 | 11309 ft | 356 kts | 24° |
| 2026-05-06 01:18 | 38.17925 | -77.52205 | 10933 ft | 355 kts | 24° |
| 2026-05-06 01:18 | 38.20081 | -77.50810 | 10564 ft | 338 kts | 24° |
| 2026-05-06 01:18 | 38.22119 | -77.49493 | 10208 ft | 320 kts | 24° |
| 2026-05-06 01:18 | 38.24121 | -77.48291 | 9867 ft | 315 kts | 15° |
| 2026-05-06 01:19 | 38.26173 | -77.47464 | 9485 ft | 312 kts | 12° |
| 2026-05-06 01:19 | 38.28285 | -77.46711 | 9094 ft | 314 kts | 11° |
| 2026-05-06 01:19 | 38.30379 | -77.46002 | 8706 ft | 311 kts | 10° |
| 2026-05-06 01:19 | 38.32464 | -77.45298 | 8411 ft | 309 kts | 11° |
| 2026-05-06 01:20 | 38.34542 | -77.44590 | 8158 ft | 309 kts | 11° |
| 2026-05-06 01:20 | 38.36598 | -77.43882 | 7907 ft | 310 kts | 11° |
| 2026-05-06 01:20 | 38.38675 | -77.43157 | 7663 ft | 309 kts | 12° |
| 2026-05-06 01:20 | 38.40747 | -77.42429 | 7415 ft | 309 kts | 12° |
| 2026-05-06 01:21 | 38.42828 | -77.41693 | 7178 ft | 308 kts | 12° |
| 2026-05-06 01:21 | 38.44895 | -77.40959 | 6940 ft | 308 kts | 12° |
| 2026-05-06 01:21 | 38.46942 | -77.40231 | 6698 ft | 308 kts | 12° |
| 2026-05-06 01:21 | 38.49025 | -77.39488 | 6452 ft | 307 kts | 12° |
| 2026-05-06 01:22 | 38.51062 | -77.38772 | 6208 ft | 306 kts | 11° |
| 2026-05-06 01:22 | 38.53131 | -77.38094 | 5951 ft | 305 kts | 11° |
| 2026-05-06 01:22 | 38.55194 | -77.37444 | 5699 ft | 304 kts | 10° |
| 2026-05-06 01:22 | 38.57255 | -77.36801 | 5448 ft | 303 kts | 10° |
| 2026-05-06 01:23 | 38.58612 | -77.36422 | 5279 ft | 301 kts | 4° |
| 2026-05-06 01:23 | 38.61356 | -77.36256 | 4951 ft | 296 kts | 357° |
| 2026-05-06 01:23 | 38.63422 | -77.36185 | 4708 ft | 297 kts | 356° |
| 2026-05-06 01:23 | 38.65486 | -77.36122 | 4453 ft | 296 kts | 356° |
| 2026-05-06 01:24 | 38.66850 | -77.36079 | 4295 ft | 295 kts | 357° |
| 2026-05-06 01:24 | 38.68904 | -77.36011 | 4086 ft | 294 kts | 356° |
| 2026-05-06 01:24 | 38.70957 | -77.35942 | 4019 ft | 296 kts | 356° |
| 2026-05-06 01:24 | 38.73032 | -77.35869 | 4022 ft | 296 kts | 356° |
| 2026-05-06 01:25 | 38.75069 | -77.35794 | 4021 ft | 297 kts | 356° |
| 2026-05-06 01:25 | 38.77128 | -77.35720 | 4020 ft | 297 kts | 356° |
| 2026-05-06 01:25 | 38.79200 | -77.35645 | 4021 ft | 296 kts | 356° |
| 2026-05-06 01:25 | 38.81271 | -77.35570 | 4005 ft | 297 kts | 356° |
| 2026-05-06 01:26 | 38.83323 | -77.35492 | 4005 ft | 297 kts | 356° |
| 2026-05-06 01:26 | 38.85392 | -77.35413 | 4005 ft | 297 kts | 356° |
| 2026-05-06 01:26 | 38.87475 | -77.35337 | 4007 ft | 299 kts | 356° |
| 2026-05-06 01:26 | 38.89527 | -77.35266 | 4015 ft | 294 kts | 357° |
| 2026-05-06 01:27 | 38.91546 | -77.35191 | 3628 ft | 285 kts | 356° |
| 2026-05-06 01:27 | 38.93506 | -77.35117 | 3140 ft | 277 kts | 356° |
| 2026-05-06 01:27 | 38.95402 | -77.35043 | 2642 ft | 268 kts | 356° |
| 2026-05-06 01:27 | 38.97211 | -77.34974 | 2282 ft | 256 kts | 356° |
| 2026-05-06 01:28 | 38.98971 | -77.34909 | 2074 ft | 250 kts | 356° |
| 2026-05-06 01:28 | 39.00720 | -77.34852 | 2000 ft | 252 kts | 356° |
| 2026-05-06 01:28 | 39.02471 | -77.34797 | 2007 ft | 252 kts | 356° |
| 2026-05-06 01:28 | 39.04229 | -77.34738 | 2012 ft | 250 kts | 356° |
| 2026-05-06 01:29 | 39.05973 | -77.34677 | 2010 ft | 250 kts | 356° |
| 2026-05-06 01:29 | 39.07693 | -77.34617 | 2007 ft | 250 kts | 357° |
| 2026-05-06 01:29 | 39.09437 | -77.34555 | 2022 ft | 251 kts | 356° |
| 2026-05-06 01:29 | 39.11153 | -77.34722 | 2022 ft | 241 kts | 334° |
| 2026-05-06 01:30 | 39.12488 | -77.35821 | 2032 ft | 225 kts | 301° |
| 2026-05-06 01:30 | 39.13121 | -77.37555 | 2015 ft | 209 kts | 274° |
| 2026-05-06 01:30 | 39.13370 | -77.39390 | 2013 ft | 206 kts | 270° |
| 2026-05-06 01:30 | 39.13563 | -77.41192 | 2019 ft | 205 kts | 269° |
| 2026-05-06 01:31 | 39.13750 | -77.43009 | 2020 ft | 206 kts | 269° |